Latest Coastal Weather Observations for Ceduna

IDS60701

Issued at 1:41 pm CST Wednesday 4 May 2016 (issued every 10 minutes, with the page automatically refreshed every 10 minutes)

About coastal observations | Map of coastal stations | Coastal observations for SA | Marine services | Other Formats
Station Details ID: 018012 Name: CEDUNA AMO Lat: -32.13 Lon: 133.70 Height: 15.3 m
Data from the previous 72 hours. | See also: Recent months at Ceduna
Date/Time
CST
Temp

°C
Wind Pressure Rain
since 9am
mm
Weather Cloud Vis
km
Sea
Height
m
Swell
Dir
 
Speed
knots
Gust
knots
hPa Trend Height
m
Period
s
Dir
04/01:30pm 20.7 W 10 13 1016.6 - 0.0 - Cloudy 10 - - - -
04/01:00pm 20.6 WNW 10 14 1017.1 - 0.0 - Cloudy 10 - - - -
04/12:30pm 19.7 W 9 13 1017.6 - 0.0 - Cloudy 10 - - - -
04/12:00pm 19.3 W 9 11 1018.2 F 0.0 - Cloudy 10 - - - -
04/11:30am 19.3 WNW 8 10 1018.4 - 0.0 - Cloudy 10 - - - -
04/11:00am 18.8 NW 8 10 1018.7 - 0.0 - Cloudy 10 - - - -
04/10:30am 18.2 NW 7 9 1018.9 - 0.0 - Cloudy 10 - - - -
04/10:00am 17.4 NNW 6 8 1019.0 - 0.0 - Cloudy 10 - - - -
04/09:30am 16.2 NNW 6 7 1019.0 - 0.0 - Cloudy 10 - - - -
04/09:00am 15.5 NNW 5 7 1018.8 R - - Cloudy 10 - - - -
04/08:30am 14.5 N 6 7 1018.7 - - - Cloudy 10 - - - -
04/08:00am 13.4 N 4 5 1018.5 - - - Cloudy 10 - - - -
04/07:30am 12.3 N 6 7 1018.1 - - - Partly cloudy 10 - - - -
04/07:00am 12.4 NNW 5 6 1017.7 - - - - 10 - - - -
04/06:30am 13.6 W 5 7 1017.6 - - - - 10 - - - -
04/06:00am 14.8 WNW 6 8 1017.1 F - - Mostly cloudy 10 - - - -
04/05:30am 14.7 NW 6 7 1016.9 - - - Cloudy 10 - - - -
04/05:00am 14.8 NW 6 8 1016.8 - - - Cloudy 10 - - - -
04/04:30am 14.7 NNW 4 5 1016.8 - - - Cloudy 10 - - - -
04/04:00am 14.7 NNW 6 8 1016.8 - - - Cloudy 10 - - - -
04/03:30am 14.6 NNW 5 7 1016.8 - - - Partly cloudy 10 - - - -
04/03:00am 14.4 NW 6 7 1017.0 R 0.0 - Cloudy 10 - - - -
04/02:30am 13.9 NW 5 6 1016.9 - - - Partly cloudy 10 - - - -
04/02:00am 13.5 NNW 4 5 1016.8 - - - Cloudy 10 - - - -
04/01:30am 13.1 NNW 6 7 1016.7 - - - Partly cloudy 10 - - - -
04/01:00am 13.4 NNW 6 7 1016.8 - - - Cloudy 10 - - - -
04/12:30am 13.7 NNW 7 10 1017.0 - - - Partly cloudy 8 - - - -
04/12:00am 14.2 NW 5 7 1017.0 F - - Mostly cloudy 10 - - - -
 
Date/Time
CST
Temp

°C
Wind Pressure Rain
since 9am
mm
Weather Cloud Vis
km
Sea
Height
m
Swell
Dir
 
Speed
knots
Gust
knots
hPa Trend Height
m
Period
s
Dir
03/11:30pm 14.1 NNW 5 7 1017.2 - - - Partly cloudy 10 - - - -
03/11:00pm 15.5 WNW 3 5 1017.5 - - - Partly cloudy 10 - - - -
03/10:30pm 15.6 W 5 7 1017.7 - - - Partly cloudy 10 - - - -
03/10:00pm 15.6 WSW 8 11 1017.7 - - - Partly cloudy 10 - - - -
03/09:30pm 15.0 W 4 5 1017.5 - - - Partly cloudy 10 - - - -
03/09:00pm 15.7 WSW 9 15 1017.5 R 1.0 - Cloudy 10 - - - -
03/08:30pm 15.9 W 9 11 1017.3 - - - Partly cloudy 10 - - - -
03/08:00pm 15.6 W 6 8 1017.0 - - - Partly cloudy 10 - - - -
03/07:48pm 15.7 W 7 8 1017.0 - - - Partly cloudy 10 - - - -
03/07:40pm 15.6 W 8 12 1016.8 - - - Partly cloudy 7 - - - -
03/07:30pm 15.6 WSW 11 16 1016.8 - - - Partly cloudy 6 - - - -
03/07:21pm 15.8 WSW 9 11 1016.7 - - - Partly cloudy 5 - - - -
03/07:01pm 16.2 WSW 10 21 1016.4 - - - Partly cloudy 5 - - - -
03/07:00pm 16.2 W 10 21 1016.4 - - - Partly cloudy 6 - - - -
03/06:30pm 16.6 WSW 6 8 1015.7 - - - Partly cloudy 10 - - - -
03/06:00pm 16.1 W 7 9 1015.4 R - Recent precip. Mostly cloudy 10 - - - -
03/05:58pm 16.1 W 7 9 1015.4 - - - Partly cloudy 10 - - - -
03/05:38pm 16.8 WSW 15 22 1015.3 - - - Partly cloudy 5 - - - -
03/05:30pm 17.6 WSW 12 19 1015.1 - - - Partly cloudy 10 - - - -
03/05:00pm 17.1 WSW 17 27 1014.9 - - - Partly cloudy 10 - - - -
03/04:55pm 18.5 WSW 17 27 1014.8 - - - Partly cloudy 10 - - - -
03/04:30pm 19.6 W 17 23 1014.4 - - - Partly cloudy 10 - - - -
03/04:00pm 19.5 W 17 22 1014.2 - - - Partly cloudy 10 - - - -
03/03:30pm 20.0 WSW 17 22 1013.8 - - - - 10 - - - -
03/03:00pm 19.8 W 17 24 1013.5 R - - - 10 - - - -
03/02:30pm 19.3 W 13 17 1013.2 - 1.4 - Partly cloudy 10 - - - -
03/02:03pm 18.0 W 17 27 1013.5 - 1.4 - Partly cloudy 10 - - - -
03/02:00pm 18.7 WSW 16 22 1013.4 - 1.4 - Partly cloudy 10 - - - -
03/01:30pm 20.2 W 13 18 1013.4 - 1.4 - Partly cloudy 10 - - - -
03/01:00pm 19.0 W 12 15 1013.8 - 1.4 - Cloudy 10 - - - -
03/12:32pm 17.4 WNW 12 16 1014.1 - 1.4 - Partly cloudy 10 - - - -
03/12:30pm 17.2 WNW 12 16 1014.1 - 1.4 - Partly cloudy 10 - - - -
03/12:00pm 17.3 WSW 14 19 1014.4 R 0.6 Rain Cloudy 4 - - - -
03/11:57am 17.6 WSW 14 19 1014.2 - 0.2 - Partly cloudy 5 - - - -
03/11:30am 20.2 W 14 17 1014.1 - 0.0 - Partly cloudy 10 - - - -
03/11:00am 18.0 WNW 12 16 1014.4 - 0.0 - Partly cloudy 10 - - - -
03/10:30am 17.5 WNW 18 25 1014.5 - 0.0 - Partly cloudy 10 - - - -
03/10:18am 19.6 WNW 15 25 1014.1 - 0.0 - Partly cloudy 10 - - - -
03/10:00am 19.3 WNW 13 18 1013.9 - 0.0 - Partly cloudy 10 - - - -
03/09:30am 18.0 NW 13 18 1013.9 - 0.0 - Partly cloudy 10 - - - -
03/09:00am 17.6 NW 14 20 1013.6 F 0.0 - Mostly clear 10 - - - -
03/08:30am 15.1 NW 10 14 1013.5 - 0.0 - - 10 - - - -
03/08:00am 12.0 NNW 10 14 1013.2 - 0.0 - - 10 - - - -
03/07:30am 10.7 NNW 9 11 1013.0 - 0.0 - - 10 - - - -
03/07:00am 10.7 NNW 9 13 1012.7 - 0.0 - - 10 - - - -
03/06:30am 10.6 NNW 10 12 1012.6 - 0.0 - - 10 - - - -
03/06:00am 10.4 NNW 9 11 1012.5 S 0.0 - - 10 - - - -
03/05:30am 10.5 NNW 8 9 1012.3 - 0.0 - - 10 - - - -
03/05:00am 10.5 NNW 8 9 1012.2 - 0.0 - - 10 - - - -
03/04:30am 10.9 NNW 9 11 1012.0 - 0.0 - - 10 - - - -
03/04:00am 11.0 NNW 10 12 1011.9 - 0.0 - - 10 - - - -
03/03:30am 10.9 NNW 7 8 1012.1 - 0.0 - - 10 - - - -
03/03:00am 10.6 NNW 7 9 1012.2 F 0.0 - - 10 - - - -
03/02:30am 10.6 NNW 7 8 1012.6 - 0.0 - - 10 - - - -
03/02:00am 10.5 NNW 6 8 1012.9 - 0.0 - - 10 - - - -
03/01:30am 10.2 NNW 7 9 1013.1 - 0.0 - - 10 - - - -
03/01:00am 10.1 NNW 7 9 1013.4 - 0.0 - - 10 - - - -
03/12:30am 10.6 NNW 7 8 1013.5 - 0.0 - - 10 - - - -
03/12:00am 10.7 NNW 8 9 1013.6 F 0.0 - - 10 - - - -
 
Date/Time
CST
Temp

°C
Wind Pressure Rain
since 9am
mm
Weather Cloud Vis
km
Sea
Height
m
Swell
Dir
 
Speed
knots
Gust
knots
hPa Trend Height
m
Period
s
Dir
02/11:30pm 10.7 NNW 8 9 1013.8 - 0.0 - - 10 - - - -
02/11:00pm 10.8 N 8 9 1014.1 - 0.0 - - 10 - - - -
02/10:30pm 11.6 NNW 7 8 1014.6 - 0.0 - - 10 - - - -
02/10:00pm 11.3 NNW 5 7 1014.7 - 0.0 - - 10 - - - -
02/09:30pm 10.8 NW 5 5 1014.8 - 0.0 - - 10 - - - -
02/09:00pm 11.8 NNW 6 7 1014.8 F 0.0 - - 10 - - - -
02/08:30pm 12.7 NNW 4 6 1014.9 - 0.0 - - 10 - - - -
02/08:00pm 15.8 WNW 7 10 1014.9 - 0.0 - - 10 - - - -
02/07:30pm 16.5 W 9 13 1014.8 - 0.0 - - 10 - - - -
02/07:00pm 16.7 W 9 13 1014.5 - 0.0 - - 10 - - - -
02/06:30pm 17.3 W 12 16 1014.3 - 0.0 - - 10 - - - -
02/06:00pm 17.5 W 13 17 1014.2 F 0.0 - - 10 - - - -
02/05:30pm 18.2 WSW 14 21 1014.1 - 0.0 - - 10 - - - -
02/05:00pm 18.6 WSW 16 21 1014.1 - 0.0 - - 10 - - - -
02/04:30pm 19.1 WSW 15 20 1014.1 - 0.0 - - 10 - - - -
02/04:00pm 19.4 WSW 18 24 1014.0 - 0.0 - - 10 - - - -
02/03:30pm 20.2 WSW 17 22 1013.9 - 0.0 - - 10 - - - -
02/03:00pm 20.0 WSW 16 21 1013.9 F 0.0 - - 10 - - - -
02/02:30pm 20.3 WSW 15 20 1014.2 - 0.0 - Partly cloudy 10 - - - -
02/02:00pm 20.7 SW 14 17 1014.6 - 0.0 - - 10 - - - -
02/01:30pm 22.0 W 12 16 1014.9 - 0.0 - Partly cloudy 10 - - - -
02/01:00pm 21.8 WNW 12 15 1015.5 - 0.0 - Partly cloudy 10 - - - -
02/12:30pm 22.1 WNW 12 16 1016.0 - 0.0 - - 10 - - - -
02/12:00pm 21.0 WNW 12 18 1016.4 F 0.0 - - 10 - - - -
02/11:30am 20.6 WNW 13 16 1016.9 - 0.0 - Partly cloudy 10 - - - -
02/11:00am 20.5 WNW 14 19 1017.1 - 0.0 - - 10 - - - -
02/10:30am 19.8 WNW 14 18 1017.3 - 0.0 - - 10 - - - -
02/10:00am 18.9 NW 13 17 1017.4 - 0.0 - - 10 - - - -
02/09:30am 17.9 NNW 11 15 1017.5 - 0.0 - - 10 - - - -
02/09:00am 16.0 NNW 11 14 1017.6 F 0.0 - - 10 - - - -
02/08:30am 14.0 NNW 9 13 1017.5 - 0.0 - - 10 - - - -
02/08:00am 11.7 NNW 11 13 1017.2 - 0.0 - - 10 - - - -
02/07:30am 10.5 NNW 10 12 1017.0 - 0.0 - - 10 - - - -
02/07:00am 10.7 NNW 9 12 1016.8 - 0.0 - - 10 - - - -
02/06:30am 11.1 NNW 10 12 1016.7 - 0.0 - - 10 - - - -
02/06:00am 11.2 N 8 10 1016.6 F 0.0 - - 10 - - - -
02/05:30am 11.9 NNW 7 8 1016.7 - 0.0 - Partly cloudy 10 - - - -
02/05:00am 12.6 NNW 7 9 1016.5 - 0.0 - Cloudy 10 - - - -
02/04:30am 12.6 NNW 5 6 1016.4 - 0.0 - Cloudy 10 - - - -
02/04:00am 13.4 N 6 8 1016.5 - 0.0 - Cloudy 10 - - - -
02/03:30am 13.4 N 5 7 1016.6 - 0.0 - Cloudy 10 - - - -
02/03:00am 13.6 N 5 7 1016.7 F 0.0 - Mostly cloudy 10 - - - -
02/02:30am 13.5 N 5 6 1017.1 - 0.0 - Cloudy 10 - - - -
02/02:00am 13.2 N 6 7 1017.2 - 0.0 - Cloudy 10 - - - -
02/01:30am 13.3 N 5 7 1017.6 - 0.0 - Cloudy 10 - - - -
02/01:00am 12.8 N 4 5 1018.1 - 0.0 - Cloudy 10 - - - -
02/12:30am 12.6 N 5 5 1018.4 - 0.0 - Cloudy 10 - - - -
02/12:00am 12.1 N 5 5 1018.7 F 0.0 - Mostly cloudy 10 - - - -
 
Date/Time
CST
Temp

°C
Wind Pressure Rain
since 9am
mm
Weather Cloud Vis
km
Sea
Height
m
Swell
Dir
 
Speed
knots
Gust
knots
hPa Trend Height
m
Period
s
Dir
01/11:30pm 11.2 N 4 5 1018.9 - 0.0 - Cloudy 10 - - - -
01/11:00pm 10.3 NNE 5 6 1019.1 - 0.0 - Partly cloudy 10 - - - -
01/10:30pm 10.5 N 5 6 1019.4 - 0.0 - Partly cloudy 10 - - - -
01/10:00pm 10.7 NNE 2 3 1019.6 - 0.0 - Partly cloudy 10 - - - -
01/09:30pm 10.7 E 4 5 1019.6 - 0.0 - Partly cloudy 10 - - - -
01/09:00pm 10.9 CALM 0 0 1019.6 F 0.0 - Partly cloudy 10 - - - -
01/08:30pm 12.0 S 4 4 1019.4 - 0.0 - Partly cloudy 10 - - - -
01/08:00pm 12.3 S 3 5 1019.3 - 0.0 - Partly cloudy 10 - - - -
01/07:30pm 13.3 SSE 1 3 1019.3 - 0.0 - Partly cloudy 10 - - - -
01/07:00pm 14.0 SSE 4 5 1019.1 - 0.0 - Cloudy 10 - - - -
01/06:30pm 15.2 S 4 5 1018.9 - 0.0 - Partly cloudy 10 - - - -
01/06:00pm 16.2 S 5 6 1018.7 F 0.0 - Mostly cloudy 10 - - - -
01/05:30pm 17.3 S 5 7 1018.7 - 0.0 - Partly cloudy 10 - - - -
01/05:00pm 18.0 SSW 7 10 1018.6 - 0.0 - Partly cloudy 10 - - - -
01/04:30pm 18.6 SSW 9 12 1018.6 - 0.0 - Cloudy 10 - - - -
01/04:00pm 18.3 SW 11 13 1018.5 - 0.0 - Partly cloudy 10 - - - -
01/03:30pm 19.3 SW 12 15 1018.6 - 0.0 - Partly cloudy 10 - - - -
01/03:00pm 18.5 SW 11 14 1018.5 R 0.0 - Mostly cloudy 10 - - - -
01/02:30pm 19.3 SW 11 14 1018.4 - 0.0 - Partly cloudy 10 - - - -
01/02:00pm 19.2 SW 11 15 1018.7 - 0.0 - Partly cloudy 10 - - - -

Other Formats:

Comma delimited format used in spreadsheet applications
http://www.bom.gov.au/fwo/IDS60701/IDS60701.94653.axf

JavaScript Object Notation format (JSON) in row-major order
http://www.bom.gov.au/fwo/IDS60701/IDS60701.94653.json